sensor_id;sensor_type;location;lat;lon;timestamp;P1;durP1;ratioP1;P2;durP2;ratioP2
62687;SDS011;48752;51.056;17.056;2022-12-07T00:01:47;11.15;;;6.60;;
62687;SDS011;48752;51.056;17.056;2022-12-07T00:04:14;10.80;;;5.97;;
62687;SDS011;48752;51.056;17.056;2022-12-07T00:06:54;10.27;;;6.00;;
62687;SDS011;48752;51.056;17.056;2022-12-07T00:09:21;9.13;;;5.43;;
62687;SDS011;48752;51.056;17.056;2022-12-07T00:11:51;9.88;;;4.70;;
62687;SDS011;48752;51.056;17.056;2022-12-07T00:14:21;7.32;;;4.88;;
62687;SDS011;48752;51.056;17.056;2022-12-07T00:16:48;8.25;;;5.88;;
62687;SDS011;48752;51.056;17.056;2022-12-07T00:19:16;6.75;;;4.80;;
62687;SDS011;48752;51.056;17.056;2022-12-07T00:21:42;7.70;;;4.43;;
62687;SDS011;48752;51.056;17.056;2022-12-07T00:24:10;11.55;;;4.95;;
62687;SDS011;48752;51.056;17.056;2022-12-07T00:26:39;8.45;;;4.72;;
62687;SDS011;48752;51.056;17.056;2022-12-07T00:29:14;7.22;;;4.82;;
62687;SDS011;48752;51.056;17.056;2022-12-07T00:31:42;7.78;;;4.43;;
62687;SDS011;48752;51.056;17.056;2022-12-07T00:34:12;9.65;;;4.28;;
62687;SDS011;48752;51.056;17.056;2022-12-07T00:36:39;5.00;;;3.58;;
62687;SDS011;48752;51.056;17.056;2022-12-07T00:39:06;6.32;;;3.95;;
62687;SDS011;48752;51.056;17.056;2022-12-07T00:41:33;7.10;;;4.20;;
62687;SDS011;48752;51.056;17.056;2022-12-07T00:44:00;4.72;;;3.58;;
62687;SDS011;48752;51.056;17.056;2022-12-07T00:46:26;6.50;;;3.83;;
62687;SDS011;48752;51.056;17.056;2022-12-07T00:48:53;6.28;;;3.65;;
62687;SDS011;48752;51.056;17.056;2022-12-07T00:51:24;4.18;;;3.00;;
62687;SDS011;48752;51.056;17.056;2022-12-07T00:53:51;4.80;;;3.67;;
62687;SDS011;48752;51.056;17.056;2022-12-07T00:56:31;5.47;;;3.50;;
62687;SDS011;48752;51.056;17.056;2022-12-07T00:58:58;4.82;;;3.42;;
62687;SDS011;48752;51.056;17.056;2022-12-07T01:01:45;5.30;;;3.33;;
62687;SDS011;48752;51.056;17.056;2022-12-07T01:04:11;5.43;;;3.22;;
62687;SDS011;48752;51.056;17.056;2022-12-07T01:06:37;6.47;;;3.63;;
62687;SDS011;48752;51.056;17.056;2022-12-07T01:09:11;5.68;;;3.35;;
62687;SDS011;48752;51.056;17.056;2022-12-07T01:11:38;6.25;;;3.78;;
62687;SDS011;48752;51.056;17.056;2022-12-07T01:14:18;5.45;;;3.25;;
62687;SDS011;48752;51.056;17.056;2022-12-07T01:16:44;6.68;;;3.67;;
62687;SDS011;48752;51.056;17.056;2022-12-07T01:19:18;5.22;;;3.38;;
62687;SDS011;48752;51.056;17.056;2022-12-07T01:21:44;4.93;;;3.33;;
62687;SDS011;48752;51.056;17.056;2022-12-07T01:24:10;4.97;;;3.22;;
62687;SDS011;48752;51.056;17.056;2022-12-07T01:26:36;5.80;;;3.30;;
62687;SDS011;48752;51.056;17.056;2022-12-07T01:29:01;6.05;;;2.88;;
62687;SDS011;48752;51.056;17.056;2022-12-07T01:34:15;7.13;;;2.80;;
62687;SDS011;48752;51.056;17.056;2022-12-07T01:36:41;5.20;;;2.85;;
62687;SDS011;48752;51.056;17.056;2022-12-07T01:39:10;3.50;;;2.78;;
62687;SDS011;48752;51.056;17.056;2022-12-07T01:41:39;3.88;;;2.40;;
62687;SDS011;48752;51.056;17.056;2022-12-07T01:49:44;4.07;;;2.05;;
62687;SDS011;48752;51.056;17.056;2022-12-07T01:54:58;3.30;;;2.35;;
62687;SDS011;48752;51.056;17.056;2022-12-07T01:57:34;4.18;;;2.13;;
62687;SDS011;48752;51.056;17.056;2022-12-07T02:00:07;7.28;;;2.58;;
62687;SDS011;48752;51.056;17.056;2022-12-07T02:02:36;3.00;;;1.95;;
62687;SDS011;48752;51.056;17.056;2022-12-07T02:05:04;3.50;;;2.00;;
62687;SDS011;48752;51.056;17.056;2022-12-07T02:07:32;2.17;;;1.67;;
62687;SDS011;48752;51.056;17.056;2022-12-07T02:10:20;2.33;;;1.67;;
62687;SDS011;48752;51.056;17.056;2022-12-07T02:12:53;1.60;;;1.25;;
62687;SDS011;48752;51.056;17.056;2022-12-07T02:15:44;2.47;;;1.60;;
62687;SDS011;48752;51.056;17.056;2022-12-07T02:18:44;3.00;;;1.48;;
62687;SDS011;48752;51.056;17.056;2022-12-07T02:24:24;2.08;;;1.50;;
62687;SDS011;48752;51.056;17.056;2022-12-07T02:27:17;2.05;;;1.73;;
62687;SDS011;48752;51.056;17.056;2022-12-07T02:30:21;2.10;;;1.40;;
62687;SDS011;48752;51.056;17.056;2022-12-07T02:32:58;1.98;;;1.13;;
62687;SDS011;48752;51.056;17.056;2022-12-07T02:35:32;2.42;;;1.42;;
62687;SDS011;48752;51.056;17.056;2022-12-07T02:38:25;3.00;;;1.90;;
62687;SDS011;48752;51.056;17.056;2022-12-07T02:41:07;3.15;;;1.42;;
62687;SDS011;48752;51.056;17.056;2022-12-07T02:43:38;1.50;;;1.30;;
62687;SDS011;48752;51.056;17.056;2022-12-07T02:46:08;2.35;;;1.35;;
62687;SDS011;48752;51.056;17.056;2022-12-07T02:48:37;1.60;;;1.40;;
62687;SDS011;48752;51.056;17.056;2022-12-07T02:51:04;1.83;;;1.38;;
62687;SDS011;48752;51.056;17.056;2022-12-07T02:53:40;2.08;;;1.17;;
62687;SDS011;48752;51.056;17.056;2022-12-07T02:56:13;1.80;;;1.45;;
62687;SDS011;48752;51.056;17.056;2022-12-07T03:01:36;2.63;;;1.55;;
62687;SDS011;48752;51.056;17.056;2022-12-07T03:07:17;2.00;;;1.27;;
62687;SDS011;48752;51.056;17.056;2022-12-07T03:18:31;2.30;;;1.42;;
62687;SDS011;48752;51.056;17.056;2022-12-07T03:21:02;2.67;;;1.52;;
62687;SDS011;48752;51.056;17.056;2022-12-07T03:23:31;3.60;;;1.60;;
62687;SDS011;48752;51.056;17.056;2022-12-07T03:25:59;2.60;;;1.60;;
62687;SDS011;48752;51.056;17.056;2022-12-07T03:28:26;3.67;;;1.98;;
62687;SDS011;48752;51.056;17.056;2022-12-07T03:31:01;3.63;;;1.50;;
62687;SDS011;48752;51.056;17.056;2022-12-07T03:37:08;3.75;;;1.90;;
62687;SDS011;48752;51.056;17.056;2022-12-07T03:39:45;2.17;;;1.70;;
62687;SDS011;48752;51.056;17.056;2022-12-07T03:42:19;2.17;;;1.45;;
62687;SDS011;48752;51.056;17.056;2022-12-07T03:44:45;3.58;;;2.22;;
62687;SDS011;48752;51.056;17.056;2022-12-07T03:47:29;3.58;;;1.92;;
62687;SDS011;48752;51.056;17.056;2022-12-07T03:50:11;1.77;;;1.58;;
62687;SDS011;48752;51.056;17.056;2022-12-07T03:52:53;1.98;;;1.80;;
62687;SDS011;48752;51.056;17.056;2022-12-07T03:58:05;5.22;;;3.20;;
62687;SDS011;48752;51.056;17.056;2022-12-07T04:00:34;2.22;;;2.03;;
62687;SDS011;48752;51.056;17.056;2022-12-07T04:03:02;3.80;;;2.17;;
62687;SDS011;48752;51.056;17.056;2022-12-07T04:05:29;3.75;;;2.10;;
62687;SDS011;48752;51.056;17.056;2022-12-07T04:07:56;2.08;;;1.80;;
62687;SDS011;48752;51.056;17.056;2022-12-07T04:10:22;2.67;;;2.10;;
62687;SDS011;48752;51.056;17.056;2022-12-07T04:12:50;2.20;;;1.85;;
62687;SDS011;48752;51.056;17.056;2022-12-07T04:15:15;1.90;;;1.67;;
62687;SDS011;48752;51.056;17.056;2022-12-07T04:17:41;2.88;;;2.22;;
62687;SDS011;48752;51.056;17.056;2022-12-07T04:20:08;2.28;;;1.77;;
62687;SDS011;48752;51.056;17.056;2022-12-07T04:22:34;2.60;;;2.40;;
62687;SDS011;48752;51.056;17.056;2022-12-07T04:24:59;5.22;;;2.00;;
62687;SDS011;48752;51.056;17.056;2022-12-07T04:27:25;4.07;;;2.22;;
62687;SDS011;48752;51.056;17.056;2022-12-07T04:29:52;3.38;;;1.90;;
62687;SDS011;48752;51.056;17.056;2022-12-07T04:32:18;2.55;;;2.35;;
62687;SDS011;48752;51.056;17.056;2022-12-07T04:34:45;2.13;;;1.92;;
62687;SDS011;48752;51.056;17.056;2022-12-07T04:37:12;2.55;;;2.20;;
62687;SDS011;48752;51.056;17.056;2022-12-07T04:39:39;4.65;;;2.30;;
62687;SDS011;48752;51.056;17.056;2022-12-07T04:42:05;2.80;;;2.38;;
62687;SDS011;48752;51.056;17.056;2022-12-07T04:44:32;4.22;;;2.60;;
62687;SDS011;48752;51.056;17.056;2022-12-07T04:46:57;2.63;;;2.00;;
62687;SDS011;48752;51.056;17.056;2022-12-07T04:49:26;3.35;;;2.97;;
62687;SDS011;48752;51.056;17.056;2022-12-07T04:51:54;2.88;;;1.95;;
62687;SDS011;48752;51.056;17.056;2022-12-07T04:54:22;4.18;;;2.65;;
62687;SDS011;48752;51.056;17.056;2022-12-07T04:56:49;7.25;;;3.08;;
62687;SDS011;48752;51.056;17.056;2022-12-07T04:59:17;4.28;;;2.50;;
62687;SDS011;48752;51.056;17.056;2022-12-07T05:01:43;4.88;;;2.50;;
62687;SDS011;48752;51.056;17.056;2022-12-07T05:04:09;6.35;;;3.00;;
62687;SDS011;48752;51.056;17.056;2022-12-07T05:06:34;5.05;;;2.63;;
62687;SDS011;48752;51.056;17.056;2022-12-07T05:09:02;5.32;;;2.90;;
62687;SDS011;48752;51.056;17.056;2022-12-07T05:11:28;3.95;;;2.42;;
62687;SDS011;48752;51.056;17.056;2022-12-07T05:14:04;3.28;;;2.83;;
62687;SDS011;48752;51.056;17.056;2022-12-07T05:16:45;4.40;;;2.90;;
62687;SDS011;48752;51.056;17.056;2022-12-07T05:19:18;4.15;;;2.60;;
62687;SDS011;48752;51.056;17.056;2022-12-07T05:21:44;2.47;;;2.13;;
62687;SDS011;48752;51.056;17.056;2022-12-07T05:24:13;2.88;;;2.20;;
62687;SDS011;48752;51.056;17.056;2022-12-07T05:26:42;3.75;;;2.00;;
62687;SDS011;48752;51.056;17.056;2022-12-07T05:29:10;2.42;;;1.70;;
62687;SDS011;48752;51.056;17.056;2022-12-07T05:31:36;5.15;;;2.50;;
62687;SDS011;48752;51.056;17.056;2022-12-07T05:34:02;5.38;;;2.35;;
62687;SDS011;48752;51.056;17.056;2022-12-07T05:36:28;4.72;;;2.72;;
62687;SDS011;48752;51.056;17.056;2022-12-07T05:38:54;6.30;;;3.50;;
62687;SDS011;48752;51.056;17.056;2022-12-07T05:41:21;3.78;;;3.42;;
62687;SDS011;48752;51.056;17.056;2022-12-07T05:44:05;6.80;;;3.72;;
62687;SDS011;48752;51.056;17.056;2022-12-07T05:46:45;7.28;;;4.53;;
62687;SDS011;48752;51.056;17.056;2022-12-07T05:49:11;7.57;;;4.78;;
62687;SDS011;48752;51.056;17.056;2022-12-07T05:51:37;9.45;;;4.47;;
62687;SDS011;48752;51.056;17.056;2022-12-07T05:54:02;12.88;;;6.13;;
62687;SDS011;48752;51.056;17.056;2022-12-07T05:56:30;12.65;;;6.03;;
62687;SDS011;48752;51.056;17.056;2022-12-07T05:58:57;13.98;;;7.65;;
62687;SDS011;48752;51.056;17.056;2022-12-07T06:01:41;10.80;;;6.72;;
62687;SDS011;48752;51.056;17.056;2022-12-07T06:04:07;17.58;;;11.93;;
62687;SDS011;48752;51.056;17.056;2022-12-07T06:06:32;15.50;;;7.82;;
62687;SDS011;48752;51.056;17.056;2022-12-07T06:08:59;12.65;;;7.40;;
62687;SDS011;48752;51.056;17.056;2022-12-07T06:11:25;13.95;;;8.00;;
62687;SDS011;48752;51.056;17.056;2022-12-07T06:14:11;19.40;;;8.77;;
62687;SDS011;48752;51.056;17.056;2022-12-07T06:16:38;18.20;;;8.63;;
62687;SDS011;48752;51.056;17.056;2022-12-07T06:19:05;16.65;;;9.13;;
62687;SDS011;48752;51.056;17.056;2022-12-07T06:21:32;16.80;;;9.15;;
62687;SDS011;48752;51.056;17.056;2022-12-07T06:23:57;20.45;;;9.73;;
62687;SDS011;48752;51.056;17.056;2022-12-07T06:26:24;17.33;;;8.93;;
62687;SDS011;48752;51.056;17.056;2022-12-07T06:28:49;18.00;;;8.75;;
62687;SDS011;48752;51.056;17.056;2022-12-07T06:31:14;18.58;;;8.73;;
62687;SDS011;48752;51.056;17.056;2022-12-07T06:33:43;16.77;;;9.10;;
62687;SDS011;48752;51.056;17.056;2022-12-07T06:36:08;14.77;;;8.70;;
62687;SDS011;48752;51.056;17.056;2022-12-07T06:38:35;16.00;;;9.05;;
62687;SDS011;48752;51.056;17.056;2022-12-07T06:41:01;20.92;;;10.05;;
62687;SDS011;48752;51.056;17.056;2022-12-07T06:43:29;18.08;;;8.98;;
62687;SDS011;48752;51.056;17.056;2022-12-07T06:45:56;23.33;;;9.00;;
62687;SDS011;48752;51.056;17.056;2022-12-07T06:48:43;16.58;;;9.10;;
62687;SDS011;48752;51.056;17.056;2022-12-07T06:51:09;18.10;;;9.68;;
62687;SDS011;48752;51.056;17.056;2022-12-07T06:53:35;21.15;;;9.80;;
62687;SDS011;48752;51.056;17.056;2022-12-07T06:56:01;16.75;;;9.30;;
62687;SDS011;48752;51.056;17.056;2022-12-07T06:58:27;19.52;;;9.73;;
62687;SDS011;48752;51.056;17.056;2022-12-07T07:00:53;20.02;;;9.38;;
62687;SDS011;48752;51.056;17.056;2022-12-07T07:03:20;21.60;;;10.02;;
62687;SDS011;48752;51.056;17.056;2022-12-07T07:05:46;20.00;;;9.30;;
62687;SDS011;48752;51.056;17.056;2022-12-07T07:08:14;19.98;;;10.27;;
62687;SDS011;48752;51.056;17.056;2022-12-07T07:10:47;25.00;;;10.93;;
62687;SDS011;48752;51.056;17.056;2022-12-07T07:13:20;17.40;;;8.32;;
62687;SDS011;48752;51.056;17.056;2022-12-07T07:15:46;17.35;;;9.40;;
62687;SDS011;48752;51.056;17.056;2022-12-07T07:18:33;17.98;;;9.05;;
62687;SDS011;48752;51.056;17.056;2022-12-07T07:20:59;18.83;;;9.82;;
62687;SDS011;48752;51.056;17.056;2022-12-07T07:23:27;19.63;;;10.25;;
62687;SDS011;48752;51.056;17.056;2022-12-07T07:25:53;20.45;;;9.75;;
62687;SDS011;48752;51.056;17.056;2022-12-07T07:28:19;16.77;;;9.63;;
62687;SDS011;48752;51.056;17.056;2022-12-07T07:30:45;19.15;;;9.52;;
62687;SDS011;48752;51.056;17.056;2022-12-07T07:33:12;21.10;;;10.90;;
62687;SDS011;48752;51.056;17.056;2022-12-07T07:38:07;16.52;;;8.57;;
62687;SDS011;48752;51.056;17.056;2022-12-07T07:40:34;15.85;;;8.75;;
62687;SDS011;48752;51.056;17.056;2022-12-07T07:43:01;15.27;;;9.10;;
62687;SDS011;48752;51.056;17.056;2022-12-07T07:45:28;19.40;;;10.15;;
62687;SDS011;48752;51.056;17.056;2022-12-07T07:47:53;15.63;;;9.52;;
62687;SDS011;48752;51.056;17.056;2022-12-07T07:50:19;18.48;;;9.30;;
62687;SDS011;48752;51.056;17.056;2022-12-07T07:52:46;15.90;;;8.45;;
62687;SDS011;48752;51.056;17.056;2022-12-07T07:55:19;18.27;;;9.80;;
62687;SDS011;48752;51.056;17.056;2022-12-07T07:57:44;19.25;;;9.57;;
62687;SDS011;48752;51.056;17.056;2022-12-07T08:00:12;19.98;;;9.82;;
62687;SDS011;48752;51.056;17.056;2022-12-07T08:02:40;20.55;;;9.98;;
62687;SDS011;48752;51.056;17.056;2022-12-07T08:05:08;18.55;;;10.30;;
62687;SDS011;48752;51.056;17.056;2022-12-07T08:07:34;19.75;;;8.75;;
62687;SDS011;48752;51.056;17.056;2022-12-07T08:10:00;17.60;;;9.07;;
62687;SDS011;48752;51.056;17.056;2022-12-07T08:12:27;21.90;;;10.35;;
62687;SDS011;48752;51.056;17.056;2022-12-07T08:14:54;15.50;;;8.98;;
62687;SDS011;48752;51.056;17.056;2022-12-07T08:17:20;16.88;;;9.20;;
62687;SDS011;48752;51.056;17.056;2022-12-07T08:19:46;16.98;;;8.23;;
62687;SDS011;48752;51.056;17.056;2022-12-07T08:22:13;17.25;;;9.68;;
62687;SDS011;48752;51.056;17.056;2022-12-07T08:24:39;16.90;;;9.45;;
62687;SDS011;48752;51.056;17.056;2022-12-07T08:27:04;15.90;;;9.45;;
62687;SDS011;48752;51.056;17.056;2022-12-07T08:29:30;19.67;;;10.60;;
62687;SDS011;48752;51.056;17.056;2022-12-07T08:31:57;19.58;;;9.00;;
62687;SDS011;48752;51.056;17.056;2022-12-07T08:34:24;18.48;;;9.43;;
62687;SDS011;48752;51.056;17.056;2022-12-07T08:36:49;17.35;;;10.07;;
62687;SDS011;48752;51.056;17.056;2022-12-07T08:39:16;17.20;;;9.82;;
62687;SDS011;48752;51.056;17.056;2022-12-07T08:41:44;19.98;;;9.35;;
62687;SDS011;48752;51.056;17.056;2022-12-07T08:44:11;20.70;;;10.52;;
62687;SDS011;48752;51.056;17.056;2022-12-07T08:46:39;16.55;;;8.95;;
62687;SDS011;48752;51.056;17.056;2022-12-07T08:49:16;18.23;;;8.95;;
62687;SDS011;48752;51.056;17.056;2022-12-07T08:51:50;17.95;;;8.55;;
62687;SDS011;48752;51.056;17.056;2022-12-07T08:54:30;17.20;;;9.32;;
62687;SDS011;48752;51.056;17.056;2022-12-07T08:57:04;16.02;;;8.95;;
62687;SDS011;48752;51.056;17.056;2022-12-07T08:59:32;16.95;;;8.45;;
62687;SDS011;48752;51.056;17.056;2022-12-07T09:02:01;15.98;;;8.93;;
62687;SDS011;48752;51.056;17.056;2022-12-07T09:04:27;19.23;;;9.02;;
62687;SDS011;48752;51.056;17.056;2022-12-07T09:06:54;14.30;;;8.07;;
62687;SDS011;48752;51.056;17.056;2022-12-07T09:09:20;17.73;;;7.88;;
62687;SDS011;48752;51.056;17.056;2022-12-07T09:11:48;13.93;;;7.60;;
62687;SDS011;48752;51.056;17.056;2022-12-07T09:14:21;12.95;;;7.63;;
62687;SDS011;48752;51.056;17.056;2022-12-07T09:16:48;11.90;;;6.95;;
62687;SDS011;48752;51.056;17.056;2022-12-07T09:19:15;9.77;;;5.95;;
62687;SDS011;48752;51.056;17.056;2022-12-07T09:21:41;9.50;;;5.70;;
62687;SDS011;48752;51.056;17.056;2022-12-07T09:24:09;14.48;;;6.68;;
62687;SDS011;48752;51.056;17.056;2022-12-07T09:26:38;13.95;;;7.50;;
62687;SDS011;48752;51.056;17.056;2022-12-07T09:29:06;10.60;;;6.57;;
62687;SDS011;48752;51.056;17.056;2022-12-07T09:31:31;9.10;;;5.93;;
62687;SDS011;48752;51.056;17.056;2022-12-07T09:33:58;9.73;;;6.00;;
62687;SDS011;48752;51.056;17.056;2022-12-07T09:36:26;13.05;;;5.97;;
62687;SDS011;48752;51.056;17.056;2022-12-07T09:38:54;9.65;;;5.55;;
62687;SDS011;48752;51.056;17.056;2022-12-07T09:41:21;10.88;;;5.63;;
62687;SDS011;48752;51.056;17.056;2022-12-07T09:43:49;10.98;;;6.32;;
62687;SDS011;48752;51.056;17.056;2022-12-07T09:46:18;10.82;;;6.15;;
62687;SDS011;48752;51.056;17.056;2022-12-07T09:48:44;10.98;;;5.93;;
62687;SDS011;48752;51.056;17.056;2022-12-07T09:51:14;9.35;;;5.68;;
62687;SDS011;48752;51.056;17.056;2022-12-07T09:53:41;10.85;;;6.40;;
62687;SDS011;48752;51.056;17.056;2022-12-07T09:56:09;11.75;;;6.60;;
62687;SDS011;48752;51.056;17.056;2022-12-07T09:58:38;13.13;;;7.05;;
62687;SDS011;48752;51.056;17.056;2022-12-07T10:03:40;15.70;;;7.15;;
62687;SDS011;48752;51.056;17.056;2022-12-07T10:06:11;14.15;;;6.63;;
62687;SDS011;48752;51.056;17.056;2022-12-07T10:08:52;12.45;;;7.10;;
62687;SDS011;48752;51.056;17.056;2022-12-07T10:11:18;13.50;;;8.40;;
62687;SDS011;48752;51.056;17.056;2022-12-07T10:13:47;14.30;;;7.60;;
62687;SDS011;48752;51.056;17.056;2022-12-07T10:19:17;12.38;;;6.95;;
62687;SDS011;48752;51.056;17.056;2022-12-07T10:22:32;11.65;;;7.22;;
62687;SDS011;48752;51.056;17.056;2022-12-07T10:24:38;11.82;;;7.25;;
62687;SDS011;48752;51.056;17.056;2022-12-07T10:27:17;14.07;;;8.20;;
62687;SDS011;48752;51.056;17.056;2022-12-07T10:29:51;12.68;;;7.15;;
62687;SDS011;48752;51.056;17.056;2022-12-07T10:35:15;15.68;;;7.90;;
62687;SDS011;48752;51.056;17.056;2022-12-07T10:37:56;14.20;;;7.53;;
62687;SDS011;48752;51.056;17.056;2022-12-07T10:43:17;15.95;;;8.25;;
62687;SDS011;48752;51.056;17.056;2022-12-07T10:48:33;12.60;;;6.53;;
62687;SDS011;48752;51.056;17.056;2022-12-07T10:57:01;11.43;;;6.57;;
62687;SDS011;48752;51.056;17.056;2022-12-07T10:59:50;6.93;;;4.00;;
62687;SDS011;48752;51.056;17.056;2022-12-07T11:02:32;5.15;;;3.53;;
62687;SDS011;48752;51.056;17.056;2022-12-07T11:08:09;5.85;;;3.10;;
62687;SDS011;48752;51.056;17.056;2022-12-07T11:11:04;4.53;;;2.90;;
62687;SDS011;48752;51.056;17.056;2022-12-07T11:13:56;6.00;;;3.78;;
62687;SDS011;48752;51.056;17.056;2022-12-07T11:16:23;4.95;;;3.50;;
62687;SDS011;48752;51.056;17.056;2022-12-07T11:30:50;10.90;;;4.15;;
62687;SDS011;48752;51.056;17.056;2022-12-07T11:38:46;5.95;;;3.65;;
62687;SDS011;48752;51.056;17.056;2022-12-07T11:41:20;8.13;;;4.32;;
62687;SDS011;48752;51.056;17.056;2022-12-07T11:52:22;6.80;;;3.40;;
62687;SDS011;48752;51.056;17.056;2022-12-07T11:54:52;8.68;;;3.45;;
62687;SDS011;48752;51.056;17.056;2022-12-07T11:57:32;4.50;;;3.08;;
62687;SDS011;48752;51.056;17.056;2022-12-07T12:00:03;4.50;;;3.08;;
62687;SDS011;48752;51.056;17.056;2022-12-07T12:02:48;6.63;;;3.40;;
62687;SDS011;48752;51.056;17.056;2022-12-07T12:05:21;7.68;;;3.20;;
62687;SDS011;48752;51.056;17.056;2022-12-07T12:08:17;4.13;;;3.30;;
62687;SDS011;48752;51.056;17.056;2022-12-07T12:19:19;6.20;;;3.60;;
62687;SDS011;48752;51.056;17.056;2022-12-07T12:21:47;7.10;;;3.85;;
62687;SDS011;48752;51.056;17.056;2022-12-07T12:24:21;4.72;;;3.40;;
62687;SDS011;48752;51.056;17.056;2022-12-07T12:26:56;7.32;;;3.70;;
62687;SDS011;48752;51.056;17.056;2022-12-07T12:29:31;6.22;;;3.83;;
62687;SDS011;48752;51.056;17.056;2022-12-07T12:42:51;5.15;;;4.03;;
62687;SDS011;48752;51.056;17.056;2022-12-07T12:45:25;7.53;;;4.18;;
62687;SDS011;48752;51.056;17.056;2022-12-07T12:47:53;4.43;;;3.72;;
62687;SDS011;48752;51.056;17.056;2022-12-07T12:50:33;6.20;;;3.92;;
62687;SDS011;48752;51.056;17.056;2022-12-07T12:53:02;8.15;;;3.97;;
62687;SDS011;48752;51.056;17.056;2022-12-07T13:00:46;9.13;;;5.07;;
62687;SDS011;48752;51.056;17.056;2022-12-07T13:03:27;6.18;;;3.83;;
62687;SDS011;48752;51.056;17.056;2022-12-07T13:09:16;4.47;;;2.90;;
62687;SDS011;48752;51.056;17.056;2022-12-07T13:11:45;4.25;;;3.00;;
62687;SDS011;48752;51.056;17.056;2022-12-07T13:20:00;10.13;;;4.13;;
62687;SDS011;48752;51.056;17.056;2022-12-07T13:27:39;5.53;;;3.65;;
62687;SDS011;48752;51.056;17.056;2022-12-07T13:30:16;8.05;;;4.10;;
62687;SDS011;48752;51.056;17.056;2022-12-07T13:32:53;6.80;;;3.85;;
62687;SDS011;48752;51.056;17.056;2022-12-07T13:35:35;8.00;;;4.70;;
62687;SDS011;48752;51.056;17.056;2022-12-07T13:38:20;5.70;;;3.53;;
62687;SDS011;48752;51.056;17.056;2022-12-07T13:43:31;7.18;;;3.95;;
62687;SDS011;48752;51.056;17.056;2022-12-07T13:45:57;4.70;;;4.05;;
62687;SDS011;48752;51.056;17.056;2022-12-07T13:51:26;5.43;;;3.67;;
62687;SDS011;48752;51.056;17.056;2022-12-07T13:53:57;6.05;;;3.80;;
62687;SDS011;48752;51.056;17.056;2022-12-07T13:56:31;5.38;;;4.43;;
62687;SDS011;48752;51.056;17.056;2022-12-07T13:58:59;6.60;;;4.07;;
62687;SDS011;48752;51.056;17.056;2022-12-07T14:01:38;10.18;;;4.45;;
62687;SDS011;48752;51.056;17.056;2022-12-07T14:04:19;7.05;;;4.30;;
62687;SDS011;48752;51.056;17.056;2022-12-07T14:07:24;7.00;;;4.60;;
62687;SDS011;48752;51.056;17.056;2022-12-07T14:09:55;5.47;;;4.18;;
62687;SDS011;48752;51.056;17.056;2022-12-07T14:12:22;5.63;;;4.55;;
62687;SDS011;48752;51.056;17.056;2022-12-07T14:14:49;6.15;;;3.65;;
62687;SDS011;48752;51.056;17.056;2022-12-07T14:17:20;6.57;;;4.07;;
62687;SDS011;48752;51.056;17.056;2022-12-07T14:19:50;6.70;;;4.22;;
62687;SDS011;48752;51.056;17.056;2022-12-07T14:25:34;7.15;;;4.40;;
62687;SDS011;48752;51.056;17.056;2022-12-07T14:28:10;8.15;;;5.22;;
62687;SDS011;48752;51.056;17.056;2022-12-07T14:30:54;6.18;;;4.68;;
62687;SDS011;48752;51.056;17.056;2022-12-07T14:33:20;8.68;;;5.43;;
62687;SDS011;48752;51.056;17.056;2022-12-07T14:35:49;8.52;;;4.70;;
62687;SDS011;48752;51.056;17.056;2022-12-07T14:38:14;7.43;;;4.82;;
62687;SDS011;48752;51.056;17.056;2022-12-07T14:40:40;8.00;;;5.88;;
62687;SDS011;48752;51.056;17.056;2022-12-07T14:43:11;11.02;;;5.03;;
62687;SDS011;48752;51.056;17.056;2022-12-07T14:45:38;8.02;;;4.45;;
62687;SDS011;48752;51.056;17.056;2022-12-07T14:48:05;9.23;;;4.78;;
62687;SDS011;48752;51.056;17.056;2022-12-07T14:50:33;8.45;;;4.88;;
62687;SDS011;48752;51.056;17.056;2022-12-07T14:53:06;9.70;;;4.75;;
62687;SDS011;48752;51.056;17.056;2022-12-07T14:55:44;6.32;;;4.35;;
62687;SDS011;48752;51.056;17.056;2022-12-07T14:58:13;6.47;;;4.40;;
62687;SDS011;48752;51.056;17.056;2022-12-07T15:00:41;7.13;;;4.50;;
62687;SDS011;48752;51.056;17.056;2022-12-07T15:03:06;8.90;;;4.18;;
62687;SDS011;48752;51.056;17.056;2022-12-07T15:05:33;8.65;;;4.60;;
62687;SDS011;48752;51.056;17.056;2022-12-07T15:08:01;8.45;;;5.57;;
62687;SDS011;48752;51.056;17.056;2022-12-07T15:10:28;10.05;;;5.13;;
62687;SDS011;48752;51.056;17.056;2022-12-07T15:12:58;7.97;;;5.28;;
62687;SDS011;48752;51.056;17.056;2022-12-07T15:15:50;8.35;;;5.35;;
62687;SDS011;48752;51.056;17.056;2022-12-07T15:18:18;9.38;;;5.07;;
62687;SDS011;48752;51.056;17.056;2022-12-07T15:20:46;11.55;;;4.90;;
62687;SDS011;48752;51.056;17.056;2022-12-07T15:23:13;7.80;;;5.18;;
62687;SDS011;48752;51.056;17.056;2022-12-07T15:25:54;9.77;;;5.55;;
62687;SDS011;48752;51.056;17.056;2022-12-07T15:28:19;11.25;;;5.85;;
62687;SDS011;48752;51.056;17.056;2022-12-07T15:30:47;9.13;;;5.72;;
62687;SDS011;48752;51.056;17.056;2022-12-07T15:35:58;9.73;;;5.03;;
62687;SDS011;48752;51.056;17.056;2022-12-07T15:38:29;10.50;;;6.10;;
62687;SDS011;48752;51.056;17.056;2022-12-07T15:40:56;9.93;;;5.13;;
62687;SDS011;48752;51.056;17.056;2022-12-07T15:43:22;8.43;;;4.68;;
62687;SDS011;48752;51.056;17.056;2022-12-07T15:46:06;10.68;;;6.15;;
62687;SDS011;48752;51.056;17.056;2022-12-07T15:48:31;8.73;;;5.07;;
62687;SDS011;48752;51.056;17.056;2022-12-07T15:51:08;8.98;;;5.38;;
62687;SDS011;48752;51.056;17.056;2022-12-07T15:53:37;14.43;;;5.80;;
62687;SDS011;48752;51.056;17.056;2022-12-07T15:56:06;8.80;;;5.07;;
62687;SDS011;48752;51.056;17.056;2022-12-07T15:58:32;8.88;;;5.30;;
62687;SDS011;48752;51.056;17.056;2022-12-07T16:01:00;9.52;;;5.90;;
62687;SDS011;48752;51.056;17.056;2022-12-07T16:03:36;9.90;;;5.80;;
62687;SDS011;48752;51.056;17.056;2022-12-07T16:06:01;11.43;;;5.75;;
62687;SDS011;48752;51.056;17.056;2022-12-07T16:08:29;13.70;;;5.95;;
62687;SDS011;48752;51.056;17.056;2022-12-07T16:10:55;9.15;;;5.45;;
62687;SDS011;48752;51.056;17.056;2022-12-07T16:13:21;13.82;;;5.35;;
62687;SDS011;48752;51.056;17.056;2022-12-07T16:15:48;9.25;;;5.10;;
62687;SDS011;48752;51.056;17.056;2022-12-07T16:18:14;12.85;;;5.82;;
62687;SDS011;48752;51.056;17.056;2022-12-07T16:20:39;6.43;;;4.30;;
62687;SDS011;48752;51.056;17.056;2022-12-07T16:23:05;10.68;;;5.78;;
62687;SDS011;48752;51.056;17.056;2022-12-07T16:25:32;10.70;;;3.60;;
62687;SDS011;48752;51.056;17.056;2022-12-07T16:27:58;9.23;;;3.83;;
62687;SDS011;48752;51.056;17.056;2022-12-07T16:30:24;7.65;;;3.65;;
62687;SDS011;48752;51.056;17.056;2022-12-07T16:32:54;12.90;;;3.90;;
62687;SDS011;48752;51.056;17.056;2022-12-07T16:35:25;6.43;;;3.83;;
62687;SDS011;48752;51.056;17.056;2022-12-07T16:37:57;6.35;;;3.97;;
62687;SDS011;48752;51.056;17.056;2022-12-07T16:40:22;8.40;;;3.83;;
62687;SDS011;48752;51.056;17.056;2022-12-07T16:42:54;9.00;;;3.72;;
62687;SDS011;48752;51.056;17.056;2022-12-07T16:45:21;7.25;;;3.90;;
62687;SDS011;48752;51.056;17.056;2022-12-07T16:47:47;7.50;;;4.43;;
62687;SDS011;48752;51.056;17.056;2022-12-07T16:50:14;8.10;;;4.53;;
62687;SDS011;48752;51.056;17.056;2022-12-07T16:52:48;8.60;;;4.28;;
62687;SDS011;48752;51.056;17.056;2022-12-07T16:55:14;8.13;;;4.00;;
62687;SDS011;48752;51.056;17.056;2022-12-07T16:57:41;7.82;;;4.35;;
62687;SDS011;48752;51.056;17.056;2022-12-07T17:00:08;12.00;;;3.90;;
62687;SDS011;48752;51.056;17.056;2022-12-07T17:05:05;7.05;;;4.15;;
62687;SDS011;48752;51.056;17.056;2022-12-07T17:07:32;7.68;;;4.50;;